sensor_id;sensor_type;location;lat;lon;timestamp;pressure;altitude;pressure_sealevel;temperature;humidity
33625;BME280;19962;47.820;1.930;2023-02-03T00:02:20;102392.63;;;11.59;71.74
33625;BME280;19962;47.820;1.930;2023-02-03T00:04:46;102389.19;;;11.57;71.82
33625;BME280;19962;47.820;1.930;2023-02-03T00:07:13;102381.72;;;11.51;72.21
33625;BME280;19962;47.820;1.930;2023-02-03T00:09:40;102380.03;;;11.50;72.00
33625;BME280;19962;47.820;1.930;2023-02-03T00:12:06;102380.03;;;11.50;72.02
33625;BME280;19962;47.820;1.930;2023-02-03T00:14:33;102378.13;;;11.50;71.90
33625;BME280;19962;47.820;1.930;2023-02-03T00:16:59;102381.47;;;11.46;71.89
33625;BME280;19962;47.820;1.930;2023-02-03T00:19:25;102383.34;;;11.45;71.59
33625;BME280;19962;47.820;1.930;2023-02-03T00:21:52;102385.91;;;11.47;71.73
33625;BME280;19962;47.820;1.930;2023-02-03T00:24:18;102382.47;;;11.45;72.23
33625;BME280;19962;47.820;1.930;2023-02-03T00:26:45;102381.28;;;11.47;71.82
33625;BME280;19962;47.820;1.930;2023-02-03T00:29:11;102387.50;;;11.56;72.12
33625;BME280;19962;47.820;1.930;2023-02-03T00:31:39;102387.97;;;11.45;71.41
33625;BME280;19962;47.820;1.930;2023-02-03T00:34:06;102398.88;;;11.38;71.87
33625;BME280;19962;47.820;1.930;2023-02-03T00:36:32;102392.72;;;11.36;72.24
33625;BME280;19962;47.820;1.930;2023-02-03T00:38:59;102393.19;;;11.40;72.04
33625;BME280;19962;47.820;1.930;2023-02-03T00:41:28;102395.38;;;11.44;71.95
33625;BME280;19962;47.820;1.930;2023-02-03T00:43:55;102395.00;;;11.47;71.63
33625;BME280;19962;47.820;1.930;2023-02-03T00:46:21;102397.25;;;11.44;71.99
33625;BME280;19962;47.820;1.930;2023-02-03T00:48:47;102396.81;;;11.40;71.91
33625;BME280;19962;47.820;1.930;2023-02-03T00:51:13;102405.25;;;11.39;72.11
33625;BME280;19962;47.820;1.930;2023-02-03T00:53:40;102402.31;;;11.40;72.14
33625;BME280;19962;47.820;1.930;2023-02-03T00:56:06;102405.59;;;11.36;71.95
33625;BME280;19962;47.820;1.930;2023-02-03T00:58:40;102402.31;;;11.26;72.38
33625;BME280;19962;47.820;1.930;2023-02-03T01:01:07;102394.84;;;11.34;72.64
33625;BME280;19962;47.820;1.930;2023-02-03T01:03:33;102401.84;;;11.37;72.50
33625;BME280;19962;47.820;1.930;2023-02-03T01:06:13;102408.75;;;11.33;73.05
33625;BME280;19962;47.820;1.930;2023-02-03T01:08:40;102396.34;;;11.37;72.73
33625;BME280;19962;47.820;1.930;2023-02-03T01:11:08;102397.75;;;11.33;72.71
33625;BME280;19962;47.820;1.930;2023-02-03T01:13:34;102393.09;;;11.33;73.01
33625;BME280;19962;47.820;1.930;2023-02-03T01:16:00;102387.06;;;11.38;72.59
33625;BME280;19962;47.820;1.930;2023-02-03T01:18:27;102386.00;;;11.39;72.82
33625;BME280;19962;47.820;1.930;2023-02-03T01:20:53;102385.63;;;11.42;72.33
33625;BME280;19962;47.820;1.930;2023-02-03T01:23:19;102395.94;;;11.40;72.52
33625;BME280;19962;47.820;1.930;2023-02-03T01:25:45;102400.13;;;11.36;72.38
33625;BME280;19962;47.820;1.930;2023-02-03T01:28:11;102399.38;;;11.42;72.55
33625;BME280;19962;47.820;1.930;2023-02-03T01:30:38;102403.16;;;11.41;72.28
33625;BME280;19962;47.820;1.930;2023-02-03T01:33:04;102408.16;;;11.37;72.06
33625;BME280;19962;47.820;1.930;2023-02-03T01:35:30;102406.09;;;11.39;72.24
33625;BME280;19962;47.820;1.930;2023-02-03T01:37:58;102411.09;;;11.36;72.36
33625;BME280;19962;47.820;1.930;2023-02-03T01:40:24;102408.66;;;11.26;72.10
33625;BME280;19962;47.820;1.930;2023-02-03T01:42:50;102408.06;;;11.31;72.06
33625;BME280;19962;47.820;1.930;2023-02-03T01:45:18;102413.47;;;11.39;72.39
33625;BME280;19962;47.820;1.930;2023-02-03T01:47:55;102409.22;;;11.36;72.01
33625;BME280;19962;47.820;1.930;2023-02-03T01:50:31;102412.25;;;11.27;71.65
33625;BME280;19962;47.820;1.930;2023-02-03T01:53:07;102397.88;;;11.25;71.80
33625;BME280;19962;47.820;1.930;2023-02-03T01:55:40;102399.38;;;11.27;72.55
33625;BME280;19962;47.820;1.930;2023-02-03T01:58:12;102400.13;;;11.36;72.21
33625;BME280;19962;47.820;1.930;2023-02-03T02:00:40;102402.59;;;11.31;71.58
33625;BME280;19962;47.820;1.930;2023-02-03T02:03:08;102397.00;;;11.24;71.64
33625;BME280;19962;47.820;1.930;2023-02-03T02:05:43;102390.16;;;11.20;72.15
33625;BME280;19962;47.820;1.930;2023-02-03T02:08:12;102384.78;;;11.27;72.22
33625;BME280;19962;47.820;1.930;2023-02-03T02:10:39;102379.69;;;11.24;72.28
33625;BME280;19962;47.820;1.930;2023-02-03T02:13:06;102370.66;;;11.30;71.93
33625;BME280;19962;47.820;1.930;2023-02-03T02:26:48;102346.69;;;11.24;71.75
33625;BME280;19962;47.820;1.930;2023-02-03T02:35:03;102338.38;;;11.32;71.17
33625;BME280;19962;47.820;1.930;2023-02-03T02:40:15;102333.06;;;11.30;71.61
33625;BME280;19962;47.820;1.930;2023-02-03T02:42:57;102330.31;;;11.30;71.40
33625;BME280;19962;47.820;1.930;2023-02-03T02:45:30;102329.44;;;11.30;71.48
33625;BME280;19962;47.820;1.930;2023-02-03T02:48:04;102327.94;;;11.27;71.36
33625;BME280;19962;47.820;1.930;2023-02-03T02:50:36;102322.91;;;11.31;71.46
33625;BME280;19962;47.820;1.930;2023-02-03T02:53:05;102330.75;;;11.34;71.42
33625;BME280;19962;47.820;1.930;2023-02-03T02:55:34;102330.13;;;11.32;71.47
33625;BME280;19962;47.820;1.930;2023-02-03T02:58:06;102326.22;;;11.41;71.19
33625;BME280;19962;47.820;1.930;2023-02-03T03:00:34;102333.13;;;11.37;70.79
33625;BME280;19962;47.820;1.930;2023-02-03T03:05:43;102332.00;;;11.31;70.71
33625;BME280;19962;47.820;1.930;2023-02-03T03:08:11;102322.25;;;11.29;71.11
33625;BME280;19962;47.820;1.930;2023-02-03T03:10:41;102313.41;;;11.33;70.59
33625;BME280;19962;47.820;1.930;2023-02-03T03:13:12;102318.81;;;11.27;70.63
33625;BME280;19962;47.820;1.930;2023-02-03T03:15:40;102307.97;;;11.19;70.96
33625;BME280;19962;47.820;1.930;2023-02-03T03:18:14;102301.53;;;11.12;70.85
33625;BME280;19962;47.820;1.930;2023-02-03T03:20:43;102302.16;;;11.14;71.08
33625;BME280;19962;47.820;1.930;2023-02-03T03:23:32;102300.75;;;11.18;70.36
33625;BME280;19962;47.820;1.930;2023-02-03T03:28:48;102292.03;;;11.14;71.03
33625;BME280;19962;47.820;1.930;2023-02-03T03:31:18;102288.66;;;11.12;71.29
33625;BME280;19962;47.820;1.930;2023-02-03T03:33:45;102291.84;;;11.16;71.28
33625;BME280;19962;47.820;1.930;2023-02-03T03:36:36;102294.41;;;11.17;70.81
33625;BME280;19962;47.820;1.930;2023-02-03T03:44:38;102300.19;;;11.22;70.76
33625;BME280;19962;47.820;1.930;2023-02-03T03:47:26;102312.03;;;11.23;70.42
33625;BME280;19962;47.820;1.930;2023-02-03T03:49:55;102310.22;;;11.15;70.98
33625;BME280;19962;47.820;1.930;2023-02-03T03:52:27;102311.94;;;11.16;71.11
33625;BME280;19962;47.820;1.930;2023-02-03T03:54:55;102316.97;;;11.13;70.76
33625;BME280;19962;47.820;1.930;2023-02-03T03:57:37;102319.06;;;11.11;70.32
33625;BME280;19962;47.820;1.930;2023-02-03T04:00:07;102310.44;;;10.99;71.23
33625;BME280;19962;47.820;1.930;2023-02-03T04:02:37;102317.28;;;11.03;71.05
33625;BME280;19962;47.820;1.930;2023-02-03T04:05:04;102328.81;;;10.99;70.55
33625;BME280;19962;47.820;1.930;2023-02-03T04:07:42;102334.78;;;11.02;70.25
33625;BME280;19962;47.820;1.930;2023-02-03T04:10:32;102336.59;;;10.95;69.68
33625;BME280;19962;47.820;1.930;2023-02-03T04:12:59;102335.25;;;10.91;71.18
33625;BME280;19962;47.820;1.930;2023-02-03T04:15:25;102335.81;;;11.01;71.18
33625;BME280;19962;47.820;1.930;2023-02-03T04:17:52;102329.38;;;11.09;71.10
33625;BME280;19962;47.820;1.930;2023-02-03T04:20:20;102335.13;;;11.14;70.97
33625;BME280;19962;47.820;1.930;2023-02-03T04:22:46;102328.63;;;11.15;70.82
33625;BME280;19962;47.820;1.930;2023-02-03T04:25:12;102327.56;;;11.16;70.99
33625;BME280;19962;47.820;1.930;2023-02-03T04:27:38;102326.78;;;11.22;70.73
33625;BME280;19962;47.820;1.930;2023-02-03T04:30:05;102334.03;;;11.23;70.71
33625;BME280;19962;47.820;1.930;2023-02-03T04:32:32;102327.47;;;11.24;70.91
33625;BME280;19962;47.820;1.930;2023-02-03T04:35:00;102329.28;;;11.17;70.32
33625;BME280;19962;47.820;1.930;2023-02-03T04:37:27;102325.88;;;11.00;71.11
33625;BME280;19962;47.820;1.930;2023-02-03T04:39:54;102323.31;;;10.84;71.42
33625;BME280;19962;47.820;1.930;2023-02-03T04:42:23;102330.91;;;10.97;71.32
33625;BME280;19962;47.820;1.930;2023-02-03T04:44:50;102337.06;;;10.99;71.07
33625;BME280;19962;47.820;1.930;2023-02-03T04:47:16;102335.25;;;10.91;71.18
33625;BME280;19962;47.820;1.930;2023-02-03T04:49:43;102350.41;;;10.87;71.05
33625;BME280;19962;47.820;1.930;2023-02-03T04:52:10;102359.22;;;10.83;70.88
33625;BME280;19962;47.820;1.930;2023-02-03T04:54:37;102369.25;;;10.76;71.06
33625;BME280;19962;47.820;1.930;2023-02-03T04:57:03;102379.75;;;10.72;71.10
33625;BME280;19962;47.820;1.930;2023-02-03T04:59:30;102398.56;;;10.61;71.08
33625;BME280;19962;47.820;1.930;2023-02-03T05:01:56;102390.13;;;10.62;71.29
33625;BME280;19962;47.820;1.930;2023-02-03T05:04:23;102402.25;;;10.68;71.41
33625;BME280;19962;47.820;1.930;2023-02-03T05:06:49;102413.53;;;10.73;71.39
33625;BME280;19962;47.820;1.930;2023-02-03T05:09:15;102402.56;;;10.73;71.41
33625;BME280;19962;47.820;1.930;2023-02-03T05:11:41;102403.06;;;10.76;71.22
33625;BME280;19962;47.820;1.930;2023-02-03T05:14:07;102407.03;;;10.74;71.36
33625;BME280;19962;47.820;1.930;2023-02-03T05:16:33;102390.91;;;10.71;71.10
33625;BME280;19962;47.820;1.930;2023-02-03T05:18:59;102387.06;;;10.80;71.48
33625;BME280;19962;47.820;1.930;2023-02-03T05:21:25;102377.41;;;10.84;71.51
33625;BME280;19962;47.820;1.930;2023-02-03T05:23:51;102383.81;;;10.91;71.41
33625;BME280;19962;47.820;1.930;2023-02-03T05:26:18;102377.41;;;10.84;71.29
33625;BME280;19962;47.820;1.930;2023-02-03T05:28:44;102377.75;;;10.81;71.54
33625;BME280;19962;47.820;1.930;2023-02-03T05:31:10;102376.06;;;10.80;71.54
33625;BME280;19962;47.820;1.930;2023-02-03T05:33:36;102372.56;;;10.86;71.52
33625;BME280;19962;47.820;1.930;2023-02-03T05:36:02;102374.72;;;10.76;71.69
33625;BME280;19962;47.820;1.930;2023-02-03T05:38:28;102367.84;;;10.80;71.71
33625;BME280;19962;47.820;1.930;2023-02-03T05:40:55;102373.41;;;10.72;71.72
33625;BME280;19962;47.820;1.930;2023-02-03T05:43:39;102372.97;;;10.83;72.07
33625;BME280;19962;47.820;1.930;2023-02-03T05:46:07;102368.66;;;10.80;71.77
33625;BME280;19962;47.820;1.930;2023-02-03T05:48:33;102362.88;;;10.75;71.68
33625;BME280;19962;47.820;1.930;2023-02-03T05:50:59;102369.13;;;10.69;71.85
33625;BME280;19962;47.820;1.930;2023-02-03T05:53:26;102362.50;;;10.64;71.43
33625;BME280;19962;47.820;1.930;2023-02-03T05:55:53;102360.81;;;10.77;71.59
33625;BME280;19962;47.820;1.930;2023-02-03T05:58:19;102359.59;;;10.80;71.28
33625;BME280;19962;47.820;1.930;2023-02-03T06:00:45;102352.97;;;10.89;71.08
33625;BME280;19962;47.820;1.930;2023-02-03T06:03:12;102367.34;;;10.91;70.84
33625;BME280;19962;47.820;1.930;2023-02-03T06:05:38;102369.16;;;10.84;71.04
33625;BME280;19962;47.820;1.930;2023-02-03T06:08:06;102369.34;;;10.82;71.13
33625;BME280;19962;47.820;1.930;2023-02-03T06:10:33;102372.75;;;10.84;71.14
33625;BME280;19962;47.820;1.930;2023-02-03T06:13:06;102375.31;;;10.86;70.95
33625;BME280;19962;47.820;1.930;2023-02-03T06:15:32;102379.19;;;10.91;70.29
33625;BME280;19962;47.820;1.930;2023-02-03T06:17:58;102382.03;;;10.98;70.53
33625;BME280;19962;47.820;1.930;2023-02-03T06:20:24;102375.22;;;10.94;70.54
33625;BME280;19962;47.820;1.930;2023-02-03T06:22:50;102389.81;;;10.94;70.29
33625;BME280;19962;47.820;1.930;2023-02-03T06:25:16;102399.56;;;10.97;70.53
33625;BME280;19962;47.820;1.930;2023-02-03T06:27:42;102396.16;;;10.95;70.34
33625;BME280;19962;47.820;1.930;2023-02-03T06:30:09;102399.56;;;10.82;70.18
33625;BME280;19962;47.820;1.930;2023-02-03T06:32:36;102397.66;;;10.83;70.30
33625;BME280;19962;47.820;1.930;2023-02-03T06:35:02;102391.41;;;10.89;70.71
33625;BME280;19962;47.820;1.930;2023-02-03T06:37:28;102385.16;;;10.95;70.29
33625;BME280;19962;47.820;1.930;2023-02-03T06:39:54;102393.50;;;11.01;70.08
33625;BME280;19962;47.820;1.930;2023-02-03T06:42:21;102405.06;;;10.97;70.25
33625;BME280;19962;47.820;1.930;2023-02-03T06:44:47;102402.41;;;10.89;70.27
33625;BME280;19962;47.820;1.930;2023-02-03T06:47:13;102396.88;;;10.74;70.33
33625;BME280;19962;47.820;1.930;2023-02-03T06:49:39;102402.19;;;10.76;70.82
33625;BME280;19962;47.820;1.930;2023-02-03T06:52:05;102406.44;;;10.78;70.38
33625;BME280;19962;47.820;1.930;2023-02-03T06:54:31;102402.94;;;10.70;70.24
33625;BME280;19962;47.820;1.930;2023-02-03T06:56:57;102408.91;;;10.73;70.47
33625;BME280;19962;47.820;1.930;2023-02-03T06:59:23;102399.63;;;10.74;70.46
33625;BME280;19962;47.820;1.930;2023-02-03T07:01:49;102394.34;;;10.87;70.62
33625;BME280;19962;47.820;1.930;2023-02-03T07:04:15;102390.09;;;10.85;70.23
33625;BME280;19962;47.820;1.930;2023-02-03T07:06:41;102395.56;;;10.85;69.86
33625;BME280;19962;47.820;1.930;2023-02-03T07:09:07;102402.28;;;10.82;69.94
33625;BME280;19962;47.820;1.930;2023-02-03T07:11:34;102401.94;;;10.85;70.38
33625;BME280;19962;47.820;1.930;2023-02-03T07:14:00;102403.63;;;10.86;70.36
33625;BME280;19962;47.820;1.930;2023-02-03T07:16:26;102406.56;;;10.85;70.12
33625;BME280;19962;47.820;1.930;2023-02-03T07:18:52;102405.22;;;10.81;70.28
33625;BME280;19962;47.820;1.930;2023-02-03T07:21:19;102417.53;;;10.85;70.28
33625;BME280;19962;47.820;1.930;2023-02-03T07:23:49;102418.88;;;10.89;70.35
33625;BME280;19962;47.820;1.930;2023-02-03T07:26:16;102426.53;;;10.93;70.11
33625;BME280;19962;47.820;1.930;2023-02-03T07:28:42;102424.56;;;10.87;70.12
33625;BME280;19962;47.820;1.930;2023-02-03T07:31:08;102418.13;;;10.95;70.02
33625;BME280;19962;47.820;1.930;2023-02-03T07:33:36;102422.94;;;10.78;69.87
33625;BME280;19962;47.820;1.930;2023-02-03T07:36:02;102438.84;;;10.83;70.04
33625;BME280;19962;47.820;1.930;2023-02-03T07:38:28;102435.56;;;10.65;70.06
33625;BME280;19962;47.820;1.930;2023-02-03T07:40:55;102435.78;;;10.78;70.19
33625;BME280;19962;47.820;1.930;2023-02-03T07:43:22;102429.47;;;10.77;69.93
33625;BME280;19962;47.820;1.930;2023-02-03T07:45:48;102428.78;;;10.75;69.98
33625;BME280;19962;47.820;1.930;2023-02-03T07:48:14;102434.00;;;10.85;69.84
33625;BME280;19962;47.820;1.930;2023-02-03T07:50:41;102442.19;;;10.93;69.60
33625;BME280;19962;47.820;1.930;2023-02-03T07:53:07;102436.97;;;10.98;69.62
33625;BME280;19962;47.820;1.930;2023-02-03T07:55:39;102426.47;;;11.01;69.55
33625;BME280;19962;47.820;1.930;2023-02-03T07:58:06;102429.66;;;11.05;69.04
33625;BME280;19962;47.820;1.930;2023-02-03T08:00:32;102433.28;;;11.05;69.15
33625;BME280;19962;47.820;1.930;2023-02-03T08:02:59;102438.22;;;11.10;69.33
33625;BME280;19962;47.820;1.930;2023-02-03T08:05:25;102434.63;;;11.09;68.99
33625;BME280;19962;47.820;1.930;2023-02-03T08:07:51;102441.72;;;11.04;69.05
33625;BME280;19962;47.820;1.930;2023-02-03T08:10:17;102445.97;;;11.06;68.82
33625;BME280;19962;47.820;1.930;2023-02-03T08:12:44;102446.25;;;11.11;68.94
33625;BME280;19962;47.820;1.930;2023-02-03T08:15:12;102447.97;;;11.12;68.01
33625;BME280;19962;47.820;1.930;2023-02-03T08:17:38;102448.53;;;11.08;68.07
33625;BME280;19962;47.820;1.930;2023-02-03T08:20:10;102455.38;;;11.12;68.59
33625;BME280;19962;47.820;1.930;2023-02-03T08:22:36;102453.09;;;11.15;68.67
33625;BME280;19962;47.820;1.930;2023-02-03T08:25:02;102453.00;;;11.23;68.81
33625;BME280;19962;47.820;1.930;2023-02-03T08:27:31;102454.50;;;11.26;68.26
33625;BME280;19962;47.820;1.930;2023-02-03T08:29:58;102459.44;;;11.16;68.39
33625;BME280;19962;47.820;1.930;2023-02-03T08:32:24;102458.50;;;11.23;68.69
33625;BME280;19962;47.820;1.930;2023-02-03T08:34:51;102456.91;;;11.29;68.67
33625;BME280;19962;47.820;1.930;2023-02-03T08:37:19;102475.75;;;11.32;68.56
33625;BME280;19962;47.820;1.930;2023-02-03T08:39:46;102473.19;;;11.30;67.94
33625;BME280;19962;47.820;1.930;2023-02-03T08:42:12;102489.69;;;11.30;67.89
33625;BME280;19962;47.820;1.930;2023-02-03T08:44:38;102479.94;;;11.28;67.85
33625;BME280;19962;47.820;1.930;2023-02-03T08:47:05;102476.97;;;11.29;67.49
33625;BME280;19962;47.820;1.930;2023-02-03T08:49:32;102484.66;;;11.34;67.54
33625;BME280;19962;47.820;1.930;2023-02-03T08:52:00;102481.16;;;11.40;67.44
33625;BME280;19962;47.820;1.930;2023-02-03T08:54:26;102485.81;;;11.39;67.93
33625;BME280;19962;47.820;1.930;2023-02-03T08:56:52;102487.59;;;11.47;67.58
33625;BME280;19962;47.820;1.930;2023-02-03T08:59:19;102487.00;;;11.51;67.53
33625;BME280;19962;47.820;1.930;2023-02-03T09:01:45;102487.69;;;11.53;67.06
33625;BME280;19962;47.820;1.930;2023-02-03T09:04:14;102495.75;;;11.55;66.78
33625;BME280;19962;47.820;1.930;2023-02-03T09:06:44;102503.59;;;11.58;67.05
33625;BME280;19962;47.820;1.930;2023-02-03T09:09:15;102498.63;;;11.61;67.08
33625;BME280;19962;47.820;1.930;2023-02-03T09:11:42;102505.88;;;11.54;67.05
33625;BME280;19962;47.820;1.930;2023-02-03T09:14:09;102497.41;;;11.64;66.46
33625;BME280;19962;47.820;1.930;2023-02-03T09:16:35;102497.50;;;11.70;66.13
33625;BME280;19962;47.820;1.930;2023-02-03T09:19:01;102498.31;;;11.71;65.93
33625;BME280;19962;47.820;1.930;2023-02-03T09:21:27;102500.50;;;11.75;65.88
33625;BME280;19962;47.820;1.930;2023-02-03T09:23:53;102498.81;;;11.74;65.70
33625;BME280;19962;47.820;1.930;2023-02-03T09:26:20;102500.97;;;11.79;65.59
33625;BME280;19962;47.820;1.930;2023-02-03T09:28:46;102505.34;;;11.88;65.33
33625;BME280;19962;47.820;1.930;2023-02-03T09:31:14;102506.00;;;11.90;64.99
33625;BME280;19962;47.820;1.930;2023-02-03T09:33:42;102502.66;;;11.94;65.33
33625;BME280;19962;47.820;1.930;2023-02-03T09:36:10;102497.34;;;11.93;64.81
33625;BME280;19962;47.820;1.930;2023-02-03T09:38:36;102497.84;;;11.96;64.78
33625;BME280;19962;47.820;1.930;2023-02-03T09:41:10;102491.69;;;11.80;64.49
33625;BME280;19962;47.820;1.930;2023-02-03T09:43:55;102486.25;;;11.86;63.82
33625;BME280;19962;47.820;1.930;2023-02-03T09:46:32;102487.84;;;11.95;64.08
33625;BME280;19962;47.820;1.930;2023-02-03T09:49:07;102489.25;;;12.06;63.65
33625;BME280;19962;47.820;1.930;2023-02-03T09:51:55;102487.47;;;12.13;62.69
33625;BME280;19962;47.820;1.930;2023-02-03T09:57:01;102488.38;;;12.20;62.63
33625;BME280;19962;47.820;1.930;2023-02-03T09:59:32;102493.41;;;12.16;62.48
33625;BME280;19962;47.820;1.930;2023-02-03T10:04:38;102496.25;;;12.23;62.79
33625;BME280;19962;47.820;1.930;2023-02-03T10:07:37;102496.69;;;12.26;62.63
33625;BME280;19962;47.820;1.930;2023-02-03T10:18:52;102497.09;;;12.44;60.95
33625;BME280;19962;47.820;1.930;2023-02-03T10:21:38;102506.22;;;12.45;61.38
33625;BME280;19962;47.820;1.930;2023-02-03T10:24:14;102497.19;;;12.51;61.25
33625;BME280;19962;47.820;1.930;2023-02-03T10:26:42;102495.09;;;12.53;61.19
33625;BME280;19962;47.820;1.930;2023-02-03T10:29:36;102499.94;;;12.51;61.01
33625;BME280;19962;47.820;1.930;2023-02-03T10:32:11;102496.34;;;12.50;60.99
33625;BME280;19962;47.820;1.930;2023-02-03T10:34:38;102499.81;;;12.59;61.43
33625;BME280;19962;47.820;1.930;2023-02-03T10:39:48;102490.56;;;12.66;61.10
33625;BME280;19962;47.820;1.930;2023-02-03T10:42:16;102491.06;;;12.76;61.29
33625;BME280;19962;47.820;1.930;2023-02-03T10:44:46;102497.81;;;12.74;61.24
33625;BME280;19962;47.820;1.930;2023-02-03T10:47:22;102496.94;;;12.67;61.22
33625;BME280;19962;47.820;1.930;2023-02-03T10:49:51;102492.78;;;12.77;61.22
33625;BME280;19962;47.820;1.930;2023-02-03T10:52:32;102493.69;;;12.84;60.22
33625;BME280;19962;47.820;1.930;2023-02-03T10:55:05;102490.75;;;12.86;60.40
33625;BME280;19962;47.820;1.930;2023-02-03T10:57:35;102485.63;;;12.83;60.49
33625;BME280;19962;47.820;1.930;2023-02-03T11:00:23;102489.50;;;12.88;60.46
33625;BME280;19962;47.820;1.930;2023-02-03T11:05:38;102474.34;;;12.99;60.44
33625;BME280;19962;47.820;1.930;2023-02-03T11:08:09;102489.25;;;13.04;60.26
33625;BME280;19962;47.820;1.930;2023-02-03T11:10:39;102481.44;;;13.08;60.13
33625;BME280;19962;47.820;1.930;2023-02-03T11:13:12;102474.81;;;13.02;59.40
33625;BME280;19962;47.820;1.930;2023-02-03T11:21:25;102459.00;;;12.90;60.15
33625;BME280;19962;47.820;1.930;2023-02-03T11:23:54;102468.47;;;13.02;60.37
33625;BME280;19962;47.820;1.930;2023-02-03T11:26:31;102459.63;;;13.13;60.30
33625;BME280;19962;47.820;1.930;2023-02-03T11:29:00;102467.66;;;13.08;60.38
33625;BME280;19962;47.820;1.930;2023-02-03T11:31:32;102459.44;;;13.14;60.17
33625;BME280;19962;47.820;1.930;2023-02-03T11:34:16;102465.56;;;13.16;59.71
33625;BME280;19962;47.820;1.930;2023-02-03T11:36:44;102456.22;;;13.11;60.33
33625;BME280;19962;47.820;1.930;2023-02-03T11:39:29;102463.44;;;13.12;60.47
33625;BME280;19962;47.820;1.930;2023-02-03T11:42:01;102468.75;;;13.13;60.54
33625;BME280;19962;47.820;1.930;2023-02-03T11:44:29;102469.34;;;13.09;60.88
33625;BME280;19962;47.820;1.930;2023-02-03T11:47:16;102476.59;;;13.16;61.02
33625;BME280;19962;47.820;1.930;2023-02-03T11:50:02;102472.81;;;13.17;60.26
33625;BME280;19962;47.820;1.930;2023-02-03T12:09:27;102469.63;;;12.93;60.60
33625;BME280;19962;47.820;1.930;2023-02-03T12:15:37;102460.44;;;13.07;60.97
33625;BME280;19962;47.820;1.930;2023-02-03T12:21:12;102443.81;;;13.21;60.29
33625;BME280;19962;47.820;1.930;2023-02-03T12:24:14;102439.38;;;13.27;60.94
33625;BME280;19962;47.820;1.930;2023-02-03T12:27:10;102439.38;;;13.27;60.63
33625;BME280;19962;47.820;1.930;2023-02-03T12:29:45;102448.44;;;13.21;60.51
33625;BME280;19962;47.820;1.930;2023-02-03T12:32:35;102441.47;;;13.25;61.13
33625;BME280;19962;47.820;1.930;2023-02-03T12:45:59;102428.72;;;13.58;60.93
33625;BME280;19962;47.820;1.930;2023-02-03T12:48:36;102428.94;;;13.63;60.95
33625;BME280;19962;47.820;1.930;2023-02-03T12:51:07;102437.47;;;13.61;60.96
33625;BME280;19962;47.820;1.930;2023-02-03T12:53:42;102415.34;;;13.48;60.94
33625;BME280;19962;47.820;1.930;2023-02-03T12:56:14;102420.38;;;13.45;61.60
33625;BME280;19962;47.820;1.930;2023-02-03T12:59:12;102418.28;;;13.47;61.67
33625;BME280;19962;47.820;1.930;2023-02-03T13:01:48;102417.38;;;13.40;61.80
33625;BME280;19962;47.820;1.930;2023-02-03T13:04:23;102417.38;;;13.40;62.44
33625;BME280;19962;47.820;1.930;2023-02-03T13:12:28;102406.16;;;13.41;62.27
33625;BME280;19962;47.820;1.930;2023-02-03T13:18:04;102408.97;;;13.14;63.12
33625;BME280;19962;47.820;1.930;2023-02-03T13:20:35;102409.19;;;13.12;62.80
33625;BME280;19962;47.820;1.930;2023-02-03T13:23:09;102405.75;;;13.10;63.19
33625;BME280;19962;47.820;1.930;2023-02-03T13:44:19;102404.03;;;13.03;63.76
33625;BME280;19962;47.820;1.930;2023-02-03T13:46:51;102402.97;;;13.04;63.93
33625;BME280;19962;47.820;1.930;2023-02-03T13:49:29;102393.00;;;13.03;63.72
33625;BME280;19962;47.820;1.930;2023-02-03T13:51:57;102390.88;;;13.05;63.85
33625;BME280;19962;47.820;1.930;2023-02-03T13:54:37;102398.44;;;12.96;63.88
33625;BME280;19962;47.820;1.930;2023-02-03T13:57:21;102391.44;;;12.94;64.31
33625;BME280;19962;47.820;1.930;2023-02-03T13:59:49;102400.59;;;13.01;64.19
33625;BME280;19962;47.820;1.930;2023-02-03T14:07:37;102386.97;;;12.93;64.93
33625;BME280;19962;47.820;1.930;2023-02-03T14:17:55;102388.13;;;13.05;64.47
33625;BME280;19962;47.820;1.930;2023-02-03T14:23:12;102385.31;;;12.98;64.53
33625;BME280;19962;47.820;1.930;2023-02-03T14:25:46;102373.19;;;12.93;64.29
33625;BME280;19962;47.820;1.930;2023-02-03T14:28:22;102378.13;;;12.97;64.45
33625;BME280;19962;47.820;1.930;2023-02-03T14:33:49;102371.34;;;13.00;64.38
33625;BME280;19962;47.820;1.930;2023-02-03T14:36:32;102383.44;;;12.99;64.73
33625;BME280;19962;47.820;1.930;2023-02-03T14:44:51;102375.53;;;12.96;64.96
33625;BME280;19962;47.820;1.930;2023-02-03T14:58:27;102366.38;;;12.89;65.16
33625;BME280;19962;47.820;1.930;2023-02-03T15:00:55;102371.47;;;12.85;64.99
33625;BME280;19962;47.820;1.930;2023-02-03T15:03:25;102368.91;;;12.84;65.25
33625;BME280;19962;47.820;1.930;2023-02-03T15:08:38;102372.13;;;12.94;64.88
33625;BME280;19962;47.820;1.930;2023-02-03T15:13:48;102365.13;;;12.91;65.04
33625;BME280;19962;47.820;1.930;2023-02-03T15:16:18;102372.59;;;12.97;65.16
33625;BME280;19962;47.820;1.930;2023-02-03T15:18:45;102378.56;;;13.01;64.99
33625;BME280;19962;47.820;1.930;2023-02-03T15:21:17;102377.53;;;13.02;64.71
33625;BME280;19962;47.820;1.930;2023-02-03T15:23:45;102385.66;;;12.89;65.06
33625;BME280;19962;47.820;1.930;2023-02-03T15:26:19;102383.13;;;12.87;65.03
33625;BME280;19962;47.820;1.930;2023-02-03T15:28:57;102386.41;;;12.76;64.72
33625;BME280;19962;47.820;1.930;2023-02-03T15:31:40;102388.97;;;12.78;65.54
33625;BME280;19962;47.820;1.930;2023-02-03T15:37:06;102405.00;;;12.68;65.66
33625;BME280;19962;47.820;1.930;2023-02-03T15:39:48;102406.69;;;12.69;65.65
33625;BME280;19962;47.820;1.930;2023-02-03T15:42:22;102405.25;;;12.73;65.85
33625;BME280;19962;47.820;1.930;2023-02-03T15:44:57;102406.94;;;12.74;65.52
33625;BME280;19962;47.820;1.930;2023-02-03T15:47:37;102413.50;;;12.73;65.71